createdAt,value
2022-09-30T00:01:01.087Z,16.83
2022-09-30T00:03:49.425Z,17.17
2022-09-30T00:06:36.493Z,17.70
2022-09-30T00:09:23.705Z,16.97
2022-09-30T00:12:10.914Z,15.63
2022-09-30T00:14:57.950Z,16.40
2022-09-30T00:17:44.897Z,15.30
2022-09-30T00:20:31.850Z,16.43
2022-09-30T00:23:20.087Z,16.77
2022-09-30T00:26:12.169Z,15.77
2022-09-30T00:29:00.370Z,16.87
2022-09-30T00:31:47.426Z,17.20
2022-09-30T00:34:34.622Z,16.67
2022-09-30T00:37:21.626Z,16.43
2022-09-30T00:40:11.805Z,16.93
2022-09-30T00:43:00.584Z,18.57
2022-09-30T00:45:58.781Z,17.77
2022-09-30T00:48:51.026Z,17.77
2022-09-30T00:51:43.863Z,18.50
2022-09-30T00:54:32.018Z,19.60
2022-09-30T00:57:19.243Z,18.70
2022-09-30T01:00:06.937Z,19.93
2022-09-30T01:02:54.475Z,18.63
2022-09-30T01:05:41.945Z,19.50
2022-09-30T01:08:32.503Z,21.93
2022-09-30T01:11:19.486Z,19.13
2022-09-30T01:14:22.121Z,20.63
2022-09-30T01:17:28.356Z,21.93
2022-09-30T01:20:37.062Z,22.73
2022-09-30T01:23:36.022Z,21.97
2022-09-30T01:26:38.145Z,25.40
2022-09-30T01:29:41.863Z,24.37
2022-09-30T01:32:40.605Z,25.50
2022-09-30T01:35:36.641Z,26.63
2022-09-30T01:38:30.766Z,25.83
2022-09-30T01:41:42.467Z,25.63
2022-09-30T01:44:34.592Z,27.57
2022-09-30T01:47:27.579Z,25.50
2022-09-30T01:50:20.898Z,26.37
2022-09-30T01:53:16.231Z,25.70
2022-09-30T01:56:12.530Z,27.13
2022-09-30T01:59:16.394Z,25.27
2022-09-30T02:02:19.664Z,26.20
2022-09-30T02:05:10.218Z,27.17
2022-09-30T02:08:04.054Z,24.70
2022-09-30T02:10:58.690Z,26.13
2022-09-30T02:14:07.311Z,26.90
2022-09-30T02:17:04.249Z,26.77
2022-09-30T02:19:59.244Z,25.60
2022-09-30T02:22:52.609Z,24.10
2022-09-30T02:25:45.492Z,26.57
2022-09-30T02:28:34.722Z,25.27
2022-09-30T02:31:24.415Z,23.90
2022-09-30T02:34:29.634Z,24.27
2022-09-30T02:37:32.413Z,23.80
2022-09-30T02:40:19.336Z,24.23
2022-09-30T02:43:07.954Z,24.63
2022-09-30T02:46:19.347Z,22.93
2022-09-30T02:49:28.063Z,23.90
2022-09-30T02:52:16.185Z,24.80
2022-09-30T02:55:19.663Z,24.70
2022-09-30T02:58:16.402Z,24.07
2022-09-30T03:01:03.639Z,25.07
2022-09-30T03:03:58.411Z,24.07
2022-09-30T03:06:45.414Z,23.87
2022-09-30T03:09:34.901Z,24.53
2022-09-30T03:12:55.792Z,25.27
2022-09-30T03:16:09.819Z,24.00
2022-09-30T03:19:15.383Z,23.10
2022-09-30T03:22:19.265Z,24.13
2022-09-30T03:25:12.286Z,21.73
2022-09-30T03:28:05.186Z,22.43
2022-09-30T03:31:38.474Z,23.77
2022-09-30T03:34:34.341Z,24.97
2022-09-30T03:37:46.777Z,24.20
2022-09-30T03:40:58.494Z,25.23
2022-09-30T03:43:55.619Z,22.80
2022-09-30T03:46:52.011Z,23.53
2022-09-30T03:49:52.986Z,24.87
2022-09-30T03:52:40.164Z,24.17
2022-09-30T03:55:28.043Z,23.90
2022-09-30T03:58:16.665Z,24.30
2022-09-30T04:01:03.703Z,25.40
2022-09-30T04:03:54.775Z,27.17
2022-09-30T04:06:41.839Z,26.63
2022-09-30T04:09:28.793Z,26.00
2022-09-30T04:12:15.850Z,25.67
2022-09-30T04:15:02.918Z,27.67
2022-09-30T04:17:49.850Z,27.70
2022-09-30T04:20:38.569Z,28.40
2022-09-30T04:23:25.831Z,27.47
2022-09-30T04:26:15.003Z,25.40
2022-09-30T04:29:01.975Z,26.77
2022-09-30T04:31:48.942Z,25.30
2022-09-30T04:34:35.919Z,25.70
2022-09-30T04:37:24.563Z,27.90
2022-09-30T04:40:12.840Z,25.93
2022-09-30T04:42:59.762Z,26.43
2022-09-30T04:45:46.956Z,26.73
2022-09-30T04:48:33.958Z,26.17
2022-09-30T04:51:21.920Z,25.03
2022-09-30T04:54:08.874Z,24.50
2022-09-30T04:56:55.871Z,25.90
2022-09-30T04:59:44.220Z,26.60
2022-09-30T05:02:32.009Z,24.63
2022-09-30T05:05:19.356Z,25.53
2022-09-30T05:08:06.498Z,25.60
2022-09-30T05:10:57.964Z,28.27
2022-09-30T05:13:45.824Z,25.17
2022-09-30T05:16:32.975Z,26.50
2022-09-30T05:19:19.978Z,27.33
2022-09-30T05:22:06.925Z,26.97
2022-09-30T05:24:56.194Z,27.60
2022-09-30T05:27:43.095Z,26.33
2022-09-30T05:30:30.054Z,26.87
2022-09-30T05:33:17.274Z,26.57
2022-09-30T05:36:07.650Z,25.53
2022-09-30T05:38:55.095Z,25.27
2022-09-30T05:41:42.086Z,26.50
2022-09-30T05:44:29.081Z,26.30
2022-09-30T05:47:16.173Z,26.10
2022-09-30T05:50:03.316Z,26.77
2022-09-30T05:52:50.380Z,27.13
2022-09-30T05:55:39.312Z,26.40
2022-09-30T05:58:27.520Z,25.93
2022-09-30T06:01:16.034Z,26.83
2022-09-30T06:04:03.260Z,25.57
2022-09-30T06:06:50.276Z,26.50
2022-09-30T06:09:37.363Z,26.07
2022-09-30T06:12:26.343Z,25.27
2022-09-30T06:15:13.297Z,24.77
2022-09-30T06:18:00.257Z,24.73
2022-09-30T06:20:47.103Z,24.37
2022-09-30T06:23:35.302Z,23.50
2022-09-30T06:26:22.284Z,23.33
2022-09-30T06:29:09.705Z,23.43
2022-09-30T06:31:56.946Z,23.67
2022-09-30T06:34:44.999Z,22.30
2022-09-30T06:37:31.923Z,23.13
2022-09-30T06:40:21.438Z,22.87
2022-09-30T06:43:08.455Z,21.83
2022-09-30T06:46:07.061Z,21.47
2022-09-30T06:49:10.163Z,20.50
2022-09-30T06:52:00.606Z,20.97
2022-09-30T06:54:49.475Z,20.40
2022-09-30T06:57:36.571Z,20.07
2022-09-30T07:00:25.005Z,20.50
2022-09-30T07:03:24.630Z,18.20
2022-09-30T07:06:13.405Z,17.53
2022-09-30T07:09:00.430Z,17.57
2022-09-30T07:11:49.099Z,15.40
2022-09-30T07:14:37.126Z,16.20
2022-09-30T07:17:24.050Z,15.73
2022-09-30T07:20:10.945Z,15.60
2022-09-30T07:22:59.007Z,15.57
2022-09-30T07:26:01.177Z,15.60
2022-09-30T07:28:49.257Z,15.97
2022-09-30T07:31:36.584Z,14.83
2022-09-30T07:34:24.238Z,15.97
2022-09-30T07:37:14.198Z,15.30
2022-09-30T07:40:01.672Z,13.97
2022-09-30T07:42:48.576Z,13.77
2022-09-30T07:45:37.308Z,13.17
2022-09-30T07:48:56.581Z,12.67
2022-09-30T07:51:46.655Z,13.27
2022-09-30T07:54:38.731Z,12.80
2022-09-30T07:57:28.269Z,12.93
2022-09-30T08:00:37.814Z,12.70
2022-09-30T08:03:22.177Z,12.93
2022-09-30T08:06:16.270Z,14.03
2022-09-30T08:09:03.873Z,13.43
2022-09-30T08:11:51.774Z,14.03
2022-09-30T08:14:39.157Z,13.70
2022-09-30T08:17:26.089Z,13.13
2022-09-30T08:20:15.698Z,13.20
2022-09-30T08:23:04.791Z,13.13
2022-09-30T08:25:51.740Z,12.30
2022-09-30T08:28:40.250Z,12.27
2022-09-30T08:31:28.194Z,12.43
2022-09-30T08:34:15.535Z,12.50
2022-09-30T08:37:08.391Z,10.97
2022-09-30T08:39:55.970Z,12.30
2022-09-30T08:42:57.539Z,12.73
2022-09-30T08:46:14.829Z,11.97
2022-09-30T08:49:20.248Z,11.90
2022-09-30T08:52:24.541Z,11.90
2022-09-30T08:55:26.273Z,11.50
2022-09-30T08:58:27.853Z,11.27
2022-09-30T09:01:27.384Z,11.67
2022-09-30T09:04:15.146Z,11.90
2022-09-30T09:07:10.511Z,11.47
2022-09-30T09:10:10.371Z,11.50
2022-09-30T09:13:18.723Z,12.63
2022-09-30T09:16:15.150Z,11.43
2022-09-30T09:19:15.430Z,12.37
2022-09-30T09:22:03.031Z,11.70
2022-09-30T09:24:51.768Z,11.10
2022-09-30T09:27:48.253Z,10.77
2022-09-30T09:30:44.924Z,11.20
2022-09-30T09:33:42.323Z,11.17
2022-09-30T09:36:38.069Z,11.17
2022-09-30T09:39:55.612Z,12.10
2022-09-30T09:43:19.266Z,11.00
2022-09-30T09:46:18.139Z,12.30
2022-09-30T09:49:14.131Z,11.63
2022-09-30T09:52:13.275Z,11.50
2022-09-30T09:55:00.943Z,10.77
2022-09-30T09:57:47.934Z,11.37
2022-09-30T10:00:47.020Z,10.67
2022-09-30T10:03:35.279Z,9.97
2022-09-30T10:06:22.279Z,10.83
2022-09-30T10:09:23.382Z,10.13
2022-09-30T10:12:13.500Z,10.90
2022-09-30T10:15:03.595Z,10.30
2022-09-30T10:17:53.410Z,10.13
2022-09-30T10:20:49.701Z,10.50
2022-09-30T10:23:41.133Z,10.50
2022-09-30T10:26:29.274Z,10.17
2022-09-30T10:29:34.080Z,10.37
2022-09-30T10:32:22.515Z,10.50
2022-09-30T10:35:23.571Z,11.30
2022-09-30T10:38:14.475Z,10.33
2022-09-30T10:41:03.066Z,10.30
2022-09-30T10:43:53.314Z,11.00
2022-09-30T10:46:42.088Z,10.67
2022-09-30T10:49:38.166Z,10.80
2022-09-30T10:52:31.348Z,10.90
2022-09-30T10:55:21.964Z,10.03
2022-09-30T10:58:27.579Z,9.93
2022-09-30T11:01:41.030Z,10.13
2022-09-30T11:04:39.432Z,10.23
2022-09-30T11:07:47.459Z,9.53
2022-09-30T11:10:47.294Z,9.47
2022-09-30T11:13:51.839Z,9.80
2022-09-30T11:16:41.587Z,8.43
2022-09-30T11:19:50.910Z,8.40
2022-09-30T11:23:03.178Z,9.03
2022-09-30T11:25:57.508Z,8.70
2022-09-30T11:29:06.403Z,8.33
2022-09-30T11:32:16.225Z,7.97
2022-09-30T11:35:24.531Z,6.50
2022-09-30T11:38:17.418Z,6.10
2022-09-30T11:41:17.737Z,7.00
2022-09-30T11:44:28.503Z,8.00
2022-09-30T11:47:25.234Z,7.20
2022-09-30T11:50:30.685Z,7.30
2022-09-30T11:53:29.498Z,6.40
2022-09-30T11:56:32.977Z,6.53
2022-09-30T11:59:29.298Z,7.27
2022-09-30T12:02:37.530Z,6.47
2022-09-30T12:05:35.495Z,6.63
2022-09-30T12:08:29.477Z,6.43
2022-09-30T12:11:23.346Z,6.57
2022-09-30T12:14:21.729Z,7.07
2022-09-30T12:17:37.747Z,7.17
2022-09-30T12:20:30.980Z,6.50
2022-09-30T12:23:32.913Z,6.40
2022-09-30T12:26:19.991Z,6.57
2022-09-30T12:29:41.614Z,5.67
2022-09-30T12:33:00.978Z,6.63
2022-09-30T12:36:03.655Z,5.57
2022-09-30T12:39:16.742Z,5.60
2022-09-30T12:42:36.947Z,5.40
2022-09-30T12:45:42.696Z,5.70
2022-09-30T12:48:44.229Z,4.57
2022-09-30T12:51:34.271Z,5.20
2022-09-30T12:54:26.862Z,4.73
2022-09-30T12:57:21.267Z,5.37
2022-09-30T13:00:30.946Z,4.90
2022-09-30T13:03:18.733Z,6.13
2022-09-30T13:06:06.647Z,5.13
2022-09-30T13:09:11.999Z,5.50
2022-09-30T13:11:58.857Z,5.37
2022-09-30T13:14:45.839Z,5.80
2022-09-30T13:17:35.102Z,5.37
2022-09-30T13:20:59.033Z,5.67
2022-09-30T13:23:53.502Z,5.13
2022-09-30T13:26:45.335Z,5.10
2022-09-30T13:29:35.393Z,5.33
2022-09-30T13:32:39.974Z,5.70
2022-09-30T13:35:48.864Z,5.93
2022-09-30T13:38:40.229Z,5.20
2022-09-30T13:41:27.480Z,4.57
2022-09-30T13:44:19.995Z,5.60
2022-09-30T13:47:25.778Z,5.13
2022-09-30T13:50:16.146Z,4.60
2022-09-30T13:53:08.089Z,5.00
2022-09-30T13:55:56.806Z,4.80
2022-09-30T13:59:20.186Z,4.87
2022-09-30T14:02:29.326Z,4.90
2022-09-30T14:05:22.796Z,5.10
2022-09-30T14:08:44.175Z,5.30
2022-09-30T14:11:52.997Z,4.83
2022-09-30T14:15:07.281Z,4.47
2022-09-30T14:18:19.710Z,4.13
2022-09-30T14:21:27.162Z,4.17
2022-09-30T14:24:17.687Z,3.80
2022-09-30T14:27:21.759Z,3.27
2022-09-30T14:30:17.670Z,4.03
2022-09-30T14:33:25.752Z,4.13
2022-09-30T14:36:22.173Z,3.80
2022-09-30T14:39:31.354Z,4.07
2022-09-30T14:42:29.811Z,3.87
2022-09-30T14:45:23.637Z,3.50
2022-09-30T14:48:17.357Z,3.60
2022-09-30T14:51:10.569Z,3.63
2022-09-30T14:54:02.898Z,3.60
2022-09-30T14:56:54.664Z,2.70
2022-09-30T14:59:43.970Z,3.57
2022-09-30T15:02:32.183Z,3.73
2022-09-30T15:05:19.256Z,3.20
2022-09-30T15:08:17.429Z,3.10
2022-09-30T15:11:04.429Z,2.97
2022-09-30T15:13:59.010Z,3.43
2022-09-30T15:16:55.269Z,3.07
2022-09-30T15:19:43.753Z,3.40
2022-09-30T15:22:31.014Z,3.30
2022-09-30T15:25:21.895Z,2.90
2022-09-30T15:28:12.675Z,3.20
2022-09-30T15:30:59.789Z,2.97
2022-09-30T15:33:46.913Z,3.50
2022-09-30T15:36:36.614Z,3.07
2022-09-30T15:39:49.594Z,2.90
2022-09-30T15:42:45.499Z,2.90
2022-09-30T15:45:39.606Z,3.10
2022-09-30T15:48:26.575Z,3.37
2022-09-30T15:51:44.414Z,3.23
2022-09-30T15:54:38.049Z,3.20
2022-09-30T15:57:44.482Z,3.00
2022-09-30T16:00:37.917Z,3.20
2022-09-30T16:03:29.854Z,3.70
2022-09-30T16:06:28.646Z,3.10
2022-09-30T16:09:21.440Z,3.33
2022-09-30T16:12:18.270Z,3.10
2022-09-30T16:15:15.771Z,3.27
2022-09-30T16:18:02.763Z,3.10
2022-09-30T16:21:00.625Z,3.50
2022-09-30T16:23:47.566Z,3.30
2022-09-30T16:26:34.942Z,3.57
2022-09-30T16:29:23.778Z,3.20
2022-09-30T16:32:10.830Z,4.03
2022-09-30T16:34:58.121Z,3.60
2022-09-30T16:37:45.635Z,3.37
2022-09-30T16:40:39.299Z,3.70
2022-09-30T16:43:26.973Z,3.57
2022-09-30T16:46:14.085Z,3.83
2022-09-30T16:49:14.017Z,3.07
2022-09-30T16:52:01.193Z,3.60
2022-09-30T16:54:48.106Z,3.90
2022-09-30T16:57:35.118Z,3.57
2022-09-30T17:00:22.150Z,4.10
2022-09-30T17:03:14.061Z,4.10
2022-09-30T17:06:01.141Z,3.73
2022-09-30T17:08:52.780Z,3.30
2022-09-30T17:11:40.310Z,3.70
2022-09-30T17:14:27.436Z,3.60
2022-09-30T17:17:14.369Z,3.67
2022-09-30T17:20:01.505Z,3.57
2022-09-30T17:22:48.988Z,4.30
2022-09-30T17:25:41.238Z,3.73
2022-09-30T17:28:28.178Z,4.13
2022-09-30T17:31:15.215Z,4.50
2022-09-30T17:34:08.077Z,5.03
2022-09-30T17:36:56.315Z,4.60
2022-09-30T17:39:43.326Z,5.20
2022-09-30T17:42:48.794Z,5.80
2022-09-30T17:45:37.831Z,6.23
2022-09-30T17:48:25.083Z,5.50
2022-09-30T17:51:12.913Z,5.43
2022-09-30T17:53:59.915Z,6.10
2022-09-30T17:56:47.792Z,5.73
2022-09-30T17:59:35.182Z,5.03
2022-09-30T18:02:22.730Z,6.07
2022-09-30T18:05:10.721Z,5.90
2022-09-30T18:07:57.872Z,5.57
2022-09-30T18:10:45.092Z,6.30
2022-09-30T18:13:32.391Z,6.00
2022-09-30T18:16:19.661Z,6.83
2022-09-30T18:19:07.500Z,7.10
2022-09-30T18:21:54.749Z,6.30
2022-09-30T18:25:00.388Z,6.73
2022-09-30T18:27:49.089Z,7.50
2022-09-30T18:30:40.637Z,8.07
2022-09-30T18:33:28.179Z,8.40
2022-09-30T18:36:15.459Z,8.53
2022-09-30T18:39:02.946Z,7.87
2022-09-30T18:41:49.877Z,8.30
2022-09-30T18:44:41.206Z,7.83
2022-09-30T18:47:28.354Z,7.00
2022-09-30T18:50:17.321Z,7.20
2022-09-30T18:53:09.483Z,7.20
2022-09-30T18:56:00.174Z,7.60
2022-09-30T18:58:49.131Z,7.07
2022-09-30T19:01:36.933Z,6.97
2022-09-30T19:04:24.349Z,7.30
2022-09-30T19:07:11.582Z,8.17
2022-09-30T19:09:58.812Z,7.70
2022-09-30T19:12:45.881Z,7.97
2022-09-30T19:15:33.221Z,8.10
2022-09-30T19:18:21.241Z,7.80
2022-09-30T19:21:11.806Z,7.80
2022-09-30T19:23:59.369Z,7.80
2022-09-30T19:26:48.019Z,7.37
2022-09-30T19:29:34.955Z,7.83
2022-09-30T19:32:21.921Z,8.10
2022-09-30T19:35:11.884Z,7.87
2022-09-30T19:38:02.846Z,7.83
2022-09-30T19:40:57.355Z,7.17
2022-09-30T19:43:49.093Z,7.93
2022-09-30T19:46:36.261Z,7.90
2022-09-30T19:49:24.187Z,8.13
2022-09-30T19:52:18.888Z,7.87
2022-09-30T19:55:16.206Z,8.17
2022-09-30T19:58:04.444Z,8.37
2022-09-30T20:00:56.440Z,8.13
2022-09-30T20:03:44.647Z,8.00
2022-09-30T20:06:35.065Z,7.20
2022-09-30T20:09:24.982Z,6.90
2022-09-30T20:12:12.210Z,6.90
2022-09-30T20:15:17.823Z,6.60
2022-09-30T20:18:05.552Z,6.80
2022-09-30T20:20:53.387Z,7.17
2022-09-30T20:23:41.019Z,7.43
2022-09-30T20:26:28.261Z,6.17
2022-09-30T20:29:15.779Z,5.77
2022-09-30T20:32:02.863Z,4.80
2022-09-30T20:34:49.823Z,4.93
2022-09-30T20:37:37.130Z,4.63
2022-09-30T20:40:24.256Z,4.57
2022-09-30T20:43:11.598Z,4.00
2022-09-30T20:46:03.895Z,3.90
2022-09-30T20:48:51.274Z,3.53
2022-09-30T20:51:38.435Z,3.03
2022-09-30T20:54:25.455Z,3.63
2022-09-30T20:57:12.685Z,3.03
2022-09-30T21:00:00.134Z,2.83
2022-09-30T21:02:49.516Z,3.03
2022-09-30T21:05:37.213Z,3.23
2022-09-30T21:08:24.385Z,3.10
2022-09-30T21:11:12.306Z,2.90
2022-09-30T21:13:59.606Z,2.77
2022-09-30T21:16:46.736Z,2.90
2022-09-30T21:19:34.349Z,2.87
2022-09-30T21:22:21.344Z,2.80
2022-09-30T21:25:09.003Z,3.00
2022-09-30T21:27:56.018Z,2.90
2022-09-30T21:30:43.011Z,2.80
2022-09-30T21:33:29.959Z,2.87
2022-09-30T21:36:17.083Z,2.90
2022-09-30T21:39:04.470Z,2.73
2022-09-30T21:41:51.458Z,2.77
2022-09-30T21:44:38.422Z,3.77
2022-09-30T21:47:25.377Z,3.00
2022-09-30T21:50:12.414Z,3.20
2022-09-30T21:53:00.044Z,3.07
2022-09-30T21:55:51.494Z,3.20
2022-09-30T21:58:38.734Z,3.17
2022-09-30T22:01:25.819Z,3.37
2022-09-30T22:04:13.365Z,3.10
2022-09-30T22:07:00.285Z,3.33
2022-09-30T22:09:47.248Z,3.13
2022-09-30T22:12:34.934Z,2.60
2022-09-30T22:15:21.880Z,2.70
2022-09-30T22:18:12.319Z,2.80
2022-09-30T22:21:11.913Z,2.40
2022-09-30T22:24:00.249Z,3.10
2022-09-30T22:26:47.946Z,3.00
2022-09-30T22:29:35.718Z,2.80
2022-09-30T22:32:22.671Z,2.60
2022-09-30T22:35:29.018Z,2.43
2022-09-30T22:38:16.096Z,2.70
2022-09-30T22:41:03.355Z,2.63
2022-09-30T22:43:50.456Z,2.80
2022-09-30T22:46:38.558Z,2.33
2022-09-30T22:49:26.434Z,2.10
2022-09-30T22:52:14.226Z,2.47
2022-09-30T22:55:01.505Z,2.57
2022-09-30T22:57:48.416Z,1.90
2022-09-30T23:00:35.452Z,2.30
2022-09-30T23:03:23.252Z,2.00
2022-09-30T23:06:10.380Z,2.17
2022-09-30T23:08:57.357Z,2.43
2022-09-30T23:11:46.169Z,2.10
2022-09-30T23:14:33.173Z,2.00
2022-09-30T23:17:20.166Z,1.77
2022-09-30T23:20:07.501Z,2.00
2022-09-30T23:22:54.463Z,2.03
2022-09-30T23:25:41.734Z,2.20
2022-09-30T23:28:29.351Z,2.03
2022-09-30T23:31:17.749Z,2.20
2022-09-30T23:34:04.937Z,2.20
2022-09-30T23:36:51.897Z,2.03
2022-09-30T23:39:39.566Z,2.37
2022-09-30T23:42:26.465Z,2.13
2022-09-30T23:45:13.499Z,2.20
2022-09-30T23:48:00.586Z,2.20
2022-09-30T23:50:49.739Z,2.10
2022-09-30T23:53:36.814Z,2.10
2022-09-30T23:56:24.022Z,2.30
2022-09-30T23:59:13.337Z,2.40
